Pagrindinis puslapis
METAR-TAF:

METAR-TAF

Oro uostai :

Mykolajivas, Ukraina

platuma: 47-03-29N, ilguma: 031-55-15E, Aukštis: 56 m

Dabartinis oras

Ataskaita buvo paskelbta 10 minutes, ne 09:00 UTC
Vėjas 4 kt iš Pietų, svyruoja nuo Pietryčių ir Pietvakarių
Temperatūra 15°C
Drėgmė 88%
Slėgis 1019 hPa
Matomumas 10 km arba daugiau
nėra debesų žemiau 1500 m ir nėra kamuolinių lietaus debesų

METAR: UKON 180900Z 18002MPS 130V230 CAVOK 15/13 Q1019 R04/090075 NOSIG

Laikas: 12:10 (09:10 UTC)

Prognozė

Ataskaita buvo paskelbta 1 valandą ir 7 minutes, ne 08:03 UTC
Prognozė galioja nuo 18 metu 09 UTC su 18 metu 18 UTC
Vėjas 6 kt iš Rytų
Matomumas: 2100 m
Išsisklaidę debesys ne aukštis 400 ft
Su prošvaistėmis ne aukštis 700 ft
rūkana

TAF: UKON 180803Z 1809/1818 09003MPS 2100 BR SCT004 BKN007

Orai ataskaitas ir orų prognozės (METAR, TAF).

turimą stotys yra geltonos ir raudonos taškus žemėlapyje.

Perkelti pele per norėdami pamatyti stoties vardą.

Tada spustelėkite, norėdami matyti oro stebėjimo ir prognozės.

Norėdami pakeisti žemėlapį: spustelėkite ant žalios mygtukų su juodo kryžiaus žemyn,; žalią mygtuką su brūkšneliu, jei norite nutolinti; arba žalių rodyklių gretimoms žemėlapius.


METAR-TAF: